Keizer, OR

10:30 PM PDT on September 14, 2014 (GMT -0700)
Whiteaker | Change Station
CLOSE
Current Station
Personal Weather Station
Location: Keizer, OR
Elevation: 144 ft
Nearby Weather Stations

Elev 144 ft 45.01 °N, 123.02 °W | Updated 19 minutes ago

Clear
Clear
64.8 °F
Feels Like 64.8 °F
N
0.0
Wind Variable Wind from North
Gusts 0.0 mph

Today
High -- | Low -- °F
--% Chance of Precip.
Yesterday
High -- | Low -- °F
Precip. -- in
6:49 AM 7:24 PM
Waning Gibbous, 59% visible
Pressure 29.79 in
Visibility 8.0 miles
Clouds Clear
Dew Point 47 °F
Humidity 52%
Rainfall 0.00 in
Snow Depth Not available.
UV 0 out of 12
Pollen 2.40 out of 12
Air Quality Not available.
Flu Activity Not available.
METAR KSLE 150356Z AUTO 00000KT 8SM FU CLR 20/07 A2979 RMK AO2 SLP087 T02000072 $

More Conditions Fewer Conditions

Pressure 29.79 in
Visibility 8.0 miles
Clouds Clear
Dew Point 47 °F
Humidity 52%
Rainfall 0.00 in
Snow Depth Not available.
UV 0 out of 12
Pollen 2.40 out of 12
Air Quality Not available.
Flu Activity Not available.
METAR KSLE 150356Z AUTO 00000KT 8SM FU CLR 20/07 A2979 RMK AO2 SLP087 T02000072 $

More Conditions Fewer Conditions

10-Day Weather Forecast

Almanac

Astronomy

Sep. 14, 2014 Rise Set
Actual Time 6:49 AM PDT 7:24 PM PDT
Civil Twilight 6:20 AM PDT 7:54 PM PDT
Nautical Twilight 5:45 AM PDT 8:28 PM PDT
Astronomical Twilight 5:08 AM PDT 9:05 PM PDT
Moon 11:06 PM PDT (9/14) 1:16 PM PDT (9/14)
Length of Visible Light 13h 33m
Length of Day
12h 34m
Tomorrow will be 3m 6s shorter.
Waning Gibbous, 59% of the Moon is Illuminated
Sep 15
Waning Gibbous
Sep 15
Last Quarter
Sep 24
New
Oct 1
First Quarter
Oct 8
Full

Yesterday's Extremes

State Highs State Lows

Community

WunderPhotos

Upload Photos

1,753,415 photos uploaded!

Nearby

Snow Depth

Station Depth Elevation
Peavine Ridge 0 in 3500 ft
Daly Lake 0 in 3600 ft
North Fork 0 in 3120 ft
Clackamas Lake 0 in 3400 ft
Blazed Alder 0 in 3650 ft

Earthquake Activity

City Distance Mag. Time & Date
No recent earthquake activity has been reported nearby.
Minimum magnitude displayed is 2.5.

Coastal Water Temperatures

Place Temperature
No Stations Reporting

Nearby Weather Stations